Bursa Yeni?ehir Airport


Codes: LTBR/YEI
Name: Bursa Yeni?ehir Airport
City: Bursa
Country: Turkey
Elevation: 764 ft.
Wikipedia:

Photos at Bursa Yeni?ehir Airport


   Photos courtesy of SpottingLog. You can add your own sightings and photos by signing up for a free trial today.



No photos found.

Weather at Bursa Yeni?ehir Airport


Time (UTC)DescriptionTempratureWindCloud coverageVisibilityPressureHumidity
21-Feb-2024 03:00Broken Clouds2°C2 mph, W75%10000m1023hPa93%
21-Feb-2024 06:00Broken Clouds3°C2 mph, SW66%10000m1024hPa91%
21-Feb-2024 09:00Overcast Clouds6°C2 mph, N91%10000m1024hPa79%
21-Feb-2024 12:00Overcast Clouds9°C7 mph, NW98%10000m1024hPa62%
21-Feb-2024 15:00Overcast Clouds8°C4 mph, N100%10000m1024hPa67%
21-Feb-2024 18:00Broken Clouds5°C0 mph, W68%10000m1025hPa74%
21-Feb-2024 21:00Few Clouds4°C2 mph, S17%10000m1025hPa80%
22-Feb-2024 00:00Few Clouds3°C2 mph, SE13%10000m1025hPa84%
22-Feb-2024 03:00Scattered Clouds3°C2 mph, SE25%10000m1025hPa85%
22-Feb-2024 06:00Broken Clouds4°C2 mph, SE55%10000m1025hPa77%
22-Feb-2024 09:00Few Clouds9°C4 mph, NE17%10000m1024hPa54%
22-Feb-2024 12:00Clear Sky12°C4 mph, NE8%10000m1022hPa46%
22-Feb-2024 15:00Clear Sky10°C2 mph, NE1%10000m1022hPa56%
22-Feb-2024 18:00Clear Sky7°C0 mph, SE0%10000m1022hPa63%
22-Feb-2024 21:00Clear Sky6°C2 mph, SE0%10000m1022hPa67%
23-Feb-2024 00:00Clear Sky5°C2 mph, SE0%10000m1022hPa67%
23-Feb-2024 03:00Clear Sky5°C2 mph, SE2%10000m1022hPa66%
23-Feb-2024 06:00Clear Sky6°C2 mph, SE6%10000m1023hPa64%
23-Feb-2024 09:00Clear Sky12°C4 mph, E8%10000m1021hPa45%
23-Feb-2024 12:00Clear Sky15°C4 mph, NE7%10000m1020hPa36%
23-Feb-2024 15:00Clear Sky13°C4 mph, NE6%10000m1019hPa50%
23-Feb-2024 18:00Clear Sky10°C2 mph, S7%10000m1020hPa56%
23-Feb-2024 21:00Clear Sky9°C2 mph, SE0%10000m1021hPa59%
24-Feb-2024 00:00Clear Sky8°C2 mph, SE0%10000m1021hPa62%
24-Feb-2024 03:00Clear Sky8°C2 mph, SE0%10000m1022hPa64%
24-Feb-2024 06:00Clear Sky9°C4 mph, SE0%10000m1022hPa65%
24-Feb-2024 09:00Clear Sky15°C4 mph, E0%10000m1021hPa49%
24-Feb-2024 12:00Clear Sky18°C4 mph, NE0%10000m1019hPa44%
24-Feb-2024 15:00Clear Sky16°C4 mph, NE3%10000m1019hPa54%
24-Feb-2024 18:00Clear Sky12°C2 mph, SW3%10000m1021hPa61%
24-Feb-2024 21:00Clear Sky11°C2 mph, SE1%10000m1021hPa66%
25-Feb-2024 00:00Clear Sky10°C2 mph, SE0%10000m1021hPa69%
25-Feb-2024 03:00Clear Sky9°C2 mph, SE0%10000m1020hPa71%
25-Feb-2024 06:00Clear Sky11°C2 mph, SE1%10000m1020hPa68%
25-Feb-2024 09:00Overcast Clouds16°C4 mph, E94%10000m1018hPa51%
25-Feb-2024 12:00Overcast Clouds19°C7 mph, NE95%10000m1015hPa41%
25-Feb-2024 15:00Overcast Clouds16°C4 mph, N85%10000m1013hPa56%
25-Feb-2024 18:00Overcast Clouds13°C2 mph, E92%10000m1012hPa60%
25-Feb-2024 21:00Overcast Clouds12°C4 mph, E100%10000m1011hPa61%
26-Feb-2024 00:00Overcast Clouds11°C4 mph, E100%10000m1009hPa60%